createdAt,value
2023-05-14T00:00:22.104Z,99.90
2023-05-14T00:02:52.000Z,99.90
2023-05-14T00:05:20.274Z,99.90
2023-05-14T00:07:48.273Z,99.90
2023-05-14T00:10:17.889Z,99.90
2023-05-14T00:12:46.180Z,99.90
2023-05-14T00:15:14.401Z,99.90
2023-05-14T00:17:42.750Z,99.90
2023-05-14T00:20:13.393Z,99.90
2023-05-14T00:22:41.589Z,99.90
2023-05-14T00:25:10.532Z,99.90
2023-05-14T00:27:38.836Z,99.90
2023-05-14T00:30:07.909Z,99.90
2023-05-14T00:32:36.162Z,99.90
2023-05-14T00:35:04.532Z,99.90
2023-05-14T00:37:33.782Z,99.90
2023-05-14T00:40:01.678Z,99.90
2023-05-14T00:42:29.770Z,99.90
2023-05-14T00:44:57.703Z,99.90
2023-05-14T00:47:25.948Z,99.90
2023-05-14T00:49:54.457Z,99.90
2023-05-14T00:52:23.003Z,99.90
2023-05-14T00:54:52.960Z,99.90
2023-05-14T00:57:21.667Z,99.90
2023-05-14T00:59:50.201Z,99.90
2023-05-14T01:02:18.416Z,99.90
2023-05-14T01:04:46.604Z,99.90
2023-05-14T01:07:21.892Z,99.90
2023-05-14T01:09:56.944Z,99.90
2023-05-14T01:12:34.741Z,99.90
2023-05-14T01:15:11.874Z,99.90
2023-05-14T01:17:47.341Z,99.90
2023-05-14T01:20:16.409Z,99.90
2023-05-14T01:22:45.882Z,99.90
2023-05-14T01:25:14.022Z,99.90
2023-05-14T01:27:48.498Z,99.90
2023-05-14T01:30:23.029Z,99.90
2023-05-14T01:32:55.718Z,99.90
2023-05-14T01:35:27.546Z,99.90
2023-05-14T01:38:00.667Z,99.90
2023-05-14T01:40:29.216Z,99.90
2023-05-14T01:42:57.846Z,99.90
2023-05-14T01:45:26.201Z,99.90
2023-05-14T01:47:55.828Z,99.90
2023-05-14T01:50:24.577Z,99.90
2023-05-14T01:52:56.397Z,99.90
2023-05-14T01:55:26.697Z,99.90
2023-05-14T01:57:55.118Z,99.90
2023-05-14T02:00:25.367Z,99.90
2023-05-14T02:02:54.045Z,99.90
2023-05-14T02:05:22.545Z,99.90
2023-05-14T02:07:51.414Z,99.90
2023-05-14T02:10:19.742Z,99.90
2023-05-14T02:12:49.210Z,99.90
2023-05-14T02:15:17.190Z,99.90
2023-05-14T02:17:45.732Z,99.90
2023-05-14T02:20:14.500Z,99.90
2023-05-14T02:22:45.709Z,99.90
2023-05-14T02:25:13.888Z,99.90
2023-05-14T02:27:41.956Z,99.90
2023-05-14T02:30:12.949Z,99.90
2023-05-14T02:32:41.122Z,99.90
2023-05-14T02:35:10.195Z,99.90
2023-05-14T02:37:39.173Z,99.90
2023-05-14T02:40:08.525Z,99.90
2023-05-14T02:42:36.533Z,99.90
2023-05-14T02:45:04.971Z,99.90
2023-05-14T02:47:37.530Z,99.90
2023-05-14T02:50:07.200Z,99.90
2023-05-14T02:52:35.386Z,99.90
2023-05-14T02:55:05.067Z,99.90
2023-05-14T02:57:33.255Z,99.90
2023-05-14T03:00:01.669Z,99.90
2023-05-14T03:02:30.345Z,99.90
2023-05-14T03:05:00.215Z,99.90
2023-05-14T03:07:28.294Z,99.90
2023-05-14T03:09:56.589Z,99.90
2023-05-14T03:12:24.656Z,99.90
2023-05-14T03:14:52.688Z,99.90
2023-05-14T03:17:21.283Z,99.90
2023-05-14T03:19:49.450Z,99.90
2023-05-14T03:22:19.294Z,99.90
2023-05-14T03:24:47.312Z,99.90
2023-05-14T03:27:15.321Z,99.90
2023-05-14T03:29:43.541Z,99.90
2023-05-14T03:32:11.568Z,99.90
2023-05-14T03:34:39.946Z,99.90
2023-05-14T03:37:07.904Z,99.90
2023-05-14T03:39:37.804Z,99.90
2023-05-14T03:42:06.524Z,99.90
2023-05-14T03:44:34.618Z,99.90
2023-05-14T03:47:02.700Z,99.90
2023-05-14T03:49:30.989Z,99.90
2023-05-14T03:51:59.385Z,99.90
2023-05-14T03:54:27.538Z,99.90
2023-05-14T03:56:57.023Z,99.90
2023-05-14T03:59:25.376Z,99.90
2023-05-14T04:01:53.381Z,99.90
2023-05-14T04:04:21.509Z,99.90
2023-05-14T04:06:49.839Z,99.90
2023-05-14T04:09:18.288Z,99.90
2023-05-14T04:11:46.256Z,99.90
2023-05-14T04:14:15.731Z,99.90
2023-05-14T04:16:43.752Z,99.90
2023-05-14T04:19:12.391Z,99.90
2023-05-14T04:21:40.491Z,99.90
2023-05-14T04:24:09.336Z,99.90
2023-05-14T04:26:37.331Z,99.90
2023-05-14T04:29:05.500Z,99.90
2023-05-14T04:31:35.244Z,99.90
2023-05-14T04:34:03.328Z,99.90
2023-05-14T04:36:31.705Z,99.90
2023-05-14T04:38:59.737Z,99.90
2023-05-14T04:41:27.732Z,99.90
2023-05-14T04:43:57.727Z,99.90
2023-05-14T04:46:25.737Z,99.90
2023-05-14T04:48:55.313Z,99.90
2023-05-14T04:51:23.390Z,99.90
2023-05-14T04:56:17.471Z,99.90
2023-05-14T04:58:45.527Z,99.90
2023-05-14T05:01:13.605Z,99.90
2023-05-14T05:03:41.862Z,99.90
2023-05-14T05:06:11.360Z,99.90
2023-05-14T05:08:39.808Z,99.90
2023-05-14T05:11:07.952Z,99.90
2023-05-14T05:13:36.255Z,99.90
2023-05-14T05:16:04.814Z,99.90
2023-05-14T05:18:33.095Z,99.90
2023-05-14T05:21:01.288Z,99.90
2023-05-14T05:23:30.692Z,99.90
2023-05-14T05:25:58.663Z,99.90
2023-05-14T05:28:26.791Z,99.90
2023-05-14T05:30:55.121Z,99.90
2023-05-14T05:33:23.395Z,99.90
2023-05-14T05:35:52.553Z,99.90
2023-05-14T05:38:20.720Z,99.90
2023-05-14T05:40:50.469Z,99.90
2023-05-14T05:43:19.034Z,99.90
2023-05-14T05:45:47.005Z,99.90
2023-05-14T05:48:15.164Z,99.90
2023-05-14T05:50:44.742Z,99.90
2023-05-14T05:53:12.916Z,99.90
2023-05-14T05:55:42.119Z,99.90
2023-05-14T05:58:11.794Z,99.90
2023-05-14T06:00:39.802Z,99.90
2023-05-14T06:03:07.915Z,99.90
2023-05-14T06:05:36.198Z,99.90
2023-05-14T06:08:04.570Z,99.90
2023-05-14T06:10:33.051Z,99.90
2023-05-14T06:13:01.307Z,99.90
2023-05-14T06:15:30.874Z,99.90
2023-05-14T06:17:59.248Z,99.90
2023-05-14T06:20:27.307Z,99.90
2023-05-14T06:22:55.507Z,99.90
2023-05-14T06:25:23.633Z,99.90
2023-05-14T06:27:51.764Z,99.90
2023-05-14T06:30:20.262Z,99.90
2023-05-14T06:32:50.507Z,99.90
2023-05-14T06:35:19.060Z,99.90
2023-05-14T06:37:47.151Z,99.90
2023-05-14T06:40:16.545Z,99.90
2023-05-14T06:42:44.941Z,99.90
2023-05-14T06:45:13.294Z,99.90
2023-05-14T06:47:41.464Z,99.90
2023-05-14T06:50:12.314Z,99.90
2023-05-14T06:52:40.358Z,99.90
2023-05-14T06:55:09.236Z,99.90
2023-05-14T06:57:38.629Z,99.90
2023-05-14T07:00:10.022Z,99.90
2023-05-14T07:02:38.500Z,99.90
2023-05-14T07:05:08.801Z,99.90
2023-05-14T07:07:38.217Z,99.90
2023-05-14T07:10:08.323Z,99.90
2023-05-14T07:12:36.649Z,99.90
2023-05-14T07:15:05.805Z,99.90
2023-05-14T07:17:34.039Z,99.90
2023-05-14T07:20:01.945Z,99.90
2023-05-14T07:22:30.072Z,99.90
2023-05-14T07:24:59.519Z,99.90
2023-05-14T07:27:27.593Z,99.90
2023-05-14T07:29:55.473Z,99.90
2023-05-14T07:32:25.059Z,99.90
2023-05-14T07:34:53.202Z,99.90
2023-05-14T07:37:24.176Z,99.90
2023-05-14T07:39:53.945Z,99.90
2023-05-14T07:42:35.247Z,99.90
2023-05-14T07:45:04.385Z,99.90
2023-05-14T07:47:32.825Z,99.90
2023-05-14T07:50:01.065Z,99.90
2023-05-14T07:52:29.088Z,99.90
2023-05-14T07:54:57.199Z,99.90
2023-05-14T07:57:26.662Z,99.90
2023-05-14T07:59:54.707Z,99.90
2023-05-14T08:02:23.418Z,99.90
2023-05-14T08:04:51.742Z,99.90
2023-05-14T08:07:20.400Z,99.90
2023-05-14T08:09:48.351Z,99.90
2023-05-14T08:12:17.115Z,99.90
2023-05-14T08:14:46.802Z,99.90
2023-05-14T08:17:15.050Z,99.90
2023-05-14T08:19:43.093Z,99.90
2023-05-14T08:22:11.061Z,99.90
2023-05-14T08:24:39.085Z,99.90
2023-05-14T08:27:08.066Z,99.90
2023-05-14T08:29:36.070Z,99.90
2023-05-14T08:32:19.382Z,99.90
2023-05-14T08:34:51.728Z,99.90
2023-05-14T08:37:20.407Z,99.90
2023-05-14T08:39:48.426Z,99.90
2023-05-14T08:42:21.762Z,99.90
2023-05-14T08:44:51.401Z,99.90
2023-05-14T08:47:23.373Z,99.90
2023-05-14T08:49:55.823Z,99.90
2023-05-14T08:52:24.106Z,99.90
2023-05-14T08:54:54.143Z,99.90
2023-05-14T08:57:25.017Z,99.90
2023-05-14T08:59:53.039Z,99.90
2023-05-14T09:02:25.722Z,99.90
2023-05-14T09:04:57.419Z,99.90
2023-05-14T09:07:25.794Z,99.40
2023-05-14T09:09:54.696Z,99.90
2023-05-14T09:12:23.191Z,99.90
2023-05-14T09:14:52.545Z,99.90
2023-05-14T09:17:22.465Z,99.60
2023-05-14T09:19:53.031Z,99.50
2023-05-14T09:22:21.729Z,98.80
2023-05-14T09:25:03.938Z,99.60
2023-05-14T09:27:33.124Z,99.90
2023-05-14T09:30:09.520Z,99.90
2023-05-14T09:32:40.555Z,99.40
2023-05-14T09:35:14.606Z,99.90
2023-05-14T09:37:44.016Z,98.50
2023-05-14T09:40:14.395Z,98.30
2023-05-14T09:42:42.778Z,97.70
2023-05-14T09:45:11.691Z,98.90
2023-05-14T09:47:41.261Z,98.90
2023-05-14T09:50:10.448Z,97.50
2023-05-14T09:52:39.377Z,98.80
2023-05-14T09:55:08.477Z,98.50
2023-05-14T09:57:36.862Z,96.00
2023-05-14T10:00:05.794Z,97.00
2023-05-14T10:02:39.432Z,97.10
2023-05-14T10:05:11.029Z,98.60
2023-05-14T10:07:43.621Z,97.90
2023-05-14T10:10:16.463Z,98.30
2023-05-14T10:12:50.022Z,95.60
2023-05-14T10:15:22.223Z,95.80
2023-05-14T10:17:54.153Z,94.50
2023-05-14T10:20:26.770Z,96.20
2023-05-14T10:22:55.348Z,96.00
2023-05-14T10:25:24.372Z,93.50
2023-05-14T10:27:54.678Z,95.30
2023-05-14T10:30:23.960Z,95.80
2023-05-14T10:33:07.567Z,94.30
2023-05-14T10:36:00.903Z,96.30
2023-05-14T10:38:32.098Z,97.30
2023-05-14T10:41:05.216Z,95.00
2023-05-14T10:43:38.450Z,94.10
2023-05-14T10:46:07.973Z,96.40
2023-05-14T10:48:37.785Z,94.80
2023-05-14T10:51:09.662Z,92.40
2023-05-14T10:53:39.126Z,92.10
2023-05-14T10:56:12.314Z,92.40
2023-05-14T10:58:41.624Z,94.20
2023-05-14T11:01:11.977Z,88.30
2023-05-14T11:03:45.021Z,88.70
2023-05-14T11:06:16.959Z,82.70
2023-05-14T11:08:47.144Z,89.50
2023-05-14T11:11:15.650Z,88.30
2023-05-14T11:13:44.687Z,89.10
2023-05-14T11:16:22.530Z,86.50
2023-05-14T11:18:55.808Z,88.40
2023-05-14T11:21:25.374Z,89.90
2023-05-14T11:23:53.293Z,92.80
2023-05-14T11:26:21.898Z,89.10
2023-05-14T11:28:50.351Z,88.50
2023-05-14T11:31:19.022Z,88.10
2023-05-14T11:33:47.204Z,88.90
2023-05-14T11:36:15.534Z,88.00
2023-05-14T11:38:52.927Z,90.00
2023-05-14T11:41:23.115Z,89.40
2023-05-14T11:43:51.628Z,87.00
2023-05-14T11:46:19.784Z,88.60
2023-05-14T11:48:48.214Z,93.40
2023-05-14T11:51:16.203Z,93.10
2023-05-14T11:53:44.149Z,90.20
2023-05-14T11:56:13.745Z,91.30
2023-05-14T11:58:44.882Z,92.40
2023-05-14T12:01:14.939Z,90.90
2023-05-14T12:03:43.213Z,87.30
2023-05-14T12:06:11.542Z,91.80
2023-05-14T12:08:39.525Z,93.00
2023-05-14T12:11:07.675Z,86.70
2023-05-14T12:13:38.185Z,91.00
2023-05-14T12:16:06.469Z,91.10
2023-05-14T12:18:35.306Z,91.00
2023-05-14T12:21:04.358Z,88.50
2023-05-14T12:23:33.258Z,90.30
2023-05-14T12:26:05.964Z,81.10
2023-05-14T12:28:36.862Z,80.40
2023-05-14T12:31:07.605Z,82.00
2023-05-14T12:33:35.572Z,83.80
2023-05-14T12:38:35.019Z,86.90
2023-05-14T12:41:05.564Z,92.10
2023-05-14T12:43:33.589Z,93.00
2023-05-14T12:46:01.631Z,91.30
2023-05-14T12:48:31.063Z,92.10
2023-05-14T12:50:59.228Z,92.70
2023-05-14T12:53:27.353Z,91.50
2023-05-14T12:55:56.259Z,90.20
2023-05-14T12:58:24.265Z,86.20
2023-05-14T13:00:52.498Z,83.90
2023-05-14T13:03:21.282Z,84.20
2023-05-14T13:05:52.117Z,91.10
2023-05-14T13:08:21.492Z,88.00
2023-05-14T13:10:50.599Z,85.10
2023-05-14T13:13:18.606Z,82.10
2023-05-14T13:15:48.906Z,75.50
2023-05-14T13:18:17.656Z,78.00
2023-05-14T13:20:48.811Z,77.10
2023-05-14T13:23:19.293Z,68.50
2023-05-14T13:25:49.762Z,71.90
2023-05-14T13:28:17.992Z,68.10
2023-05-14T13:31:06.308Z,67.50
2023-05-14T13:33:36.741Z,67.00
2023-05-14T13:36:05.425Z,63.90
2023-05-14T13:38:35.653Z,71.00
2023-05-14T13:41:03.814Z,71.90
2023-05-14T13:43:32.085Z,74.90
2023-05-14T13:46:01.143Z,80.10
2023-05-14T13:48:29.283Z,83.80
2023-05-14T13:50:57.481Z,80.90
2023-05-14T13:53:26.343Z,74.50
2023-05-14T13:56:00.201Z,74.00
2023-05-14T13:58:29.494Z,73.80
2023-05-14T14:00:58.530Z,73.70
2023-05-14T14:03:26.510Z,73.50
2023-05-14T14:05:54.554Z,72.60
2023-05-14T14:08:24.353Z,75.60
2023-05-14T14:10:55.304Z,76.40
2023-05-14T14:13:24.841Z,77.20
2023-05-14T14:15:54.761Z,79.30
